Terminal Aerodrome Forecast
Issued by NWS Memphis, TN

Home | Current Version | Previous Version | Text Only | Print | Product List | Glossary On
Versions: 1 2 3 4 5 6 7 8 9 10 11 12 13 14 15 16 17 18 19 20 21 22 23 24
000
FTUS44 KMEG 132324
TAFMEM
TAF
KMEM 132324Z 1400/1506 24007KT P6SM SCT250
     FM140600 32006KT P6SM SKC
     FM140900 36008KT P6SM SKC
     FM141400 02010KT P6SM SCT030 BKN120 BKN250
     FM141900 36008KT P6SM SCT040 BKN060
     FM150000 33006KT P6SM SCT060=

USA.gov is the U.S. government's official web portal to all federal, state and local government web resources and services.